sensor_id;sensor_type;location;lat;lon;timestamp;P1;durP1;ratioP1;P2;durP2;ratioP2
21120;SDS011;12519;43.318;21.898;2022-07-05T00:04:02;16.0;;;15.0;;
21120;SDS011;12519;43.318;21.898;2022-07-05T00:08:40;16.0;;;15.0;;
21120;SDS011;12519;43.318;21.898;2022-07-05T00:13:17;16.0;;;14.0;;
21120;SDS011;12519;43.318;21.898;2022-07-05T00:17:55;16.0;;;14.0;;
21120;SDS011;12519;43.318;21.898;2022-07-05T00:22:32;16.0;;;13.0;;
21120;SDS011;12519;43.318;21.898;2022-07-05T00:27:08;16.0;;;13.0;;
21120;SDS011;12519;43.318;21.898;2022-07-05T00:31:45;16.0;;;13.0;;
21120;SDS011;12519;43.318;21.898;2022-07-05T00:36:22;16.0;;;14.0;;
21120;SDS011;12519;43.318;21.898;2022-07-05T00:40:58;16.0;;;14.0;;
21120;SDS011;12519;43.318;21.898;2022-07-05T00:45:35;17.0;;;14.0;;
21120;SDS011;12519;43.318;21.898;2022-07-05T00:50:11;17.0;;;14.0;;
21120;SDS011;12519;43.318;21.898;2022-07-05T00:54:49;16.0;;;14.0;;
21120;SDS011;12519;43.318;21.898;2022-07-05T00:59:28;16.0;;;14.0;;
21120;SDS011;12519;43.318;21.898;2022-07-05T01:04:11;15.0;;;13.0;;
21120;SDS011;12519;43.318;21.898;2022-07-05T01:08:49;15.0;;;13.0;;
21120;SDS011;12519;43.318;21.898;2022-07-05T01:13:29;15.0;;;13.0;;
21120;SDS011;12519;43.318;21.898;2022-07-05T01:18:12;15.0;;;13.0;;
21120;SDS011;12519;43.318;21.898;2022-07-05T01:22:51;15.0;;;13.0;;
21120;SDS011;12519;43.318;21.898;2022-07-05T01:27:36;15.0;;;13.0;;
21120;SDS011;12519;43.318;21.898;2022-07-05T01:32:14;16.0;;;14.0;;
21120;SDS011;12519;43.318;21.898;2022-07-05T01:36:51;16.0;;;14.0;;
21120;SDS011;12519;43.318;21.898;2022-07-05T01:41:30;16.0;;;14.0;;
21120;SDS011;12519;43.318;21.898;2022-07-05T01:46:11;17.0;;;14.0;;
21120;SDS011;12519;43.318;21.898;2022-07-05T01:51:13;17.0;;;14.0;;
21120;SDS011;12519;43.318;21.898;2022-07-05T01:56:29;16.0;;;14.0;;
21120;SDS011;12519;43.318;21.898;2022-07-05T02:01:07;16.0;;;14.0;;
21120;SDS011;12519;43.318;21.898;2022-07-05T02:05:45;14.0;;;13.0;;
21120;SDS011;12519;43.318;21.898;2022-07-05T02:10:25;14.0;;;13.0;;
21120;SDS011;12519;43.318;21.898;2022-07-05T02:15:02;16.0;;;14.0;;
21120;SDS011;12519;43.318;21.898;2022-07-05T02:19:41;16.0;;;14.0;;
21120;SDS011;12519;43.318;21.898;2022-07-05T02:24:19;17.0;;;15.0;;
21120;SDS011;12519;43.318;21.898;2022-07-05T02:28:57;17.0;;;15.0;;
21120;SDS011;12519;43.318;21.898;2022-07-05T02:33:37;16.0;;;14.0;;
21120;SDS011;12519;43.318;21.898;2022-07-05T02:38:14;16.0;;;14.0;;
21120;SDS011;12519;43.318;21.898;2022-07-05T02:42:51;15.0;;;13.0;;
21120;SDS011;12519;43.318;21.898;2022-07-05T02:47:29;15.0;;;13.0;;
21120;SDS011;12519;43.318;21.898;2022-07-05T02:52:06;15.0;;;13.0;;
21120;SDS011;12519;43.318;21.898;2022-07-05T02:56:43;14.0;;;12.0;;
21120;SDS011;12519;43.318;21.898;2022-07-05T03:01:19;14.0;;;12.0;;
21120;SDS011;12519;43.318;21.898;2022-07-05T03:05:56;12.0;;;12.0;;
21120;SDS011;12519;43.318;21.898;2022-07-05T03:10:32;12.0;;;12.0;;
21120;SDS011;12519;43.318;21.898;2022-07-05T03:15:10;13.0;;;12.0;;
21120;SDS011;12519;43.318;21.898;2022-07-05T03:19:47;13.0;;;12.0;;
21120;SDS011;12519;43.318;21.898;2022-07-05T03:24:23;14.0;;;13.0;;
21120;SDS011;12519;43.318;21.898;2022-07-05T03:28:59;14.0;;;13.0;;
21120;SDS011;12519;43.318;21.898;2022-07-05T03:33:36;15.0;;;13.0;;
21120;SDS011;12519;43.318;21.898;2022-07-05T03:38:13;15.0;;;13.0;;
21120;SDS011;12519;43.318;21.898;2022-07-05T03:42:50;16.0;;;13.0;;
21120;SDS011;12519;43.318;21.898;2022-07-05T03:47:27;16.0;;;13.0;;
21120;SDS011;12519;43.318;21.898;2022-07-05T03:52:04;16.0;;;13.0;;
21120;SDS011;12519;43.318;21.898;2022-07-05T03:56:41;16.0;;;13.0;;
21120;SDS011;12519;43.318;21.898;2022-07-05T04:01:18;16.0;;;13.0;;
21120;SDS011;12519;43.318;21.898;2022-07-05T04:05:56;16.0;;;13.0;;
21120;SDS011;12519;43.318;21.898;2022-07-05T04:10:33;16.0;;;13.0;;
21120;SDS011;12519;43.318;21.898;2022-07-05T04:15:10;17.0;;;14.0;;
21120;SDS011;12519;43.318;21.898;2022-07-05T04:19:50;17.0;;;14.0;;
21120;SDS011;12519;43.318;21.898;2022-07-05T04:24:27;18.0;;;16.0;;
21120;SDS011;12519;43.318;21.898;2022-07-05T04:29:05;18.0;;;16.0;;
21120;SDS011;12519;43.318;21.898;2022-07-05T04:33:42;18.0;;;16.0;;
21120;SDS011;12519;43.318;21.898;2022-07-05T04:38:19;18.0;;;16.0;;
21120;SDS011;12519;43.318;21.898;2022-07-05T04:42:56;18.0;;;16.0;;
21120;SDS011;12519;43.318;21.898;2022-07-05T04:47:33;18.0;;;16.0;;
21120;SDS011;12519;43.318;21.898;2022-07-05T04:52:11;18.0;;;16.0;;
21120;SDS011;12519;43.318;21.898;2022-07-05T04:56:48;18.0;;;17.0;;
21120;SDS011;12519;43.318;21.898;2022-07-05T05:01:24;18.0;;;17.0;;
21120;SDS011;12519;43.318;21.898;2022-07-05T05:06:01;19.0;;;18.0;;
21120;SDS011;12519;43.318;21.898;2022-07-05T05:10:37;19.0;;;18.0;;
21120;SDS011;12519;43.318;21.898;2022-07-05T05:15:14;21.0;;;19.0;;
21120;SDS011;12519;43.318;21.898;2022-07-05T05:19:50;21.0;;;19.0;;
21120;SDS011;12519;43.318;21.898;2022-07-05T05:24:27;23.0;;;20.0;;
21120;SDS011;12519;43.318;21.898;2022-07-05T05:29:03;23.0;;;20.0;;
21120;SDS011;12519;43.318;21.898;2022-07-05T05:33:40;24.0;;;19.0;;
21120;SDS011;12519;43.318;21.898;2022-07-05T05:38:16;24.0;;;19.0;;
21120;SDS011;12519;43.318;21.898;2022-07-05T05:42:54;26.0;;;18.0;;
21120;SDS011;12519;43.318;21.898;2022-07-05T05:47:32;26.0;;;18.0;;
21120;SDS011;12519;43.318;21.898;2022-07-05T05:52:08;26.0;;;18.0;;
21120;SDS011;12519;43.318;21.898;2022-07-05T05:56:44;20.0;;;16.0;;
21120;SDS011;12519;43.318;21.898;2022-07-05T06:01:20;20.0;;;16.0;;
21120;SDS011;12519;43.318;21.898;2022-07-05T06:05:56;14.0;;;13.0;;
21120;SDS011;12519;43.318;21.898;2022-07-05T06:10:35;14.0;;;13.0;;
21120;SDS011;12519;43.318;21.898;2022-07-05T06:15:16;14.0;;;13.0;;
21120;SDS011;12519;43.318;21.898;2022-07-05T06:19:55;14.0;;;13.0;;
21120;SDS011;12519;43.318;21.898;2022-07-05T06:24:32;14.0;;;13.0;;
21120;SDS011;12519;43.318;21.898;2022-07-05T06:29:09;14.0;;;13.0;;
21120;SDS011;12519;43.318;21.898;2022-07-05T06:33:45;12.0;;;11.0;;
21120;SDS011;12519;43.318;21.898;2022-07-05T06:38:22;12.0;;;11.0;;
21120;SDS011;12519;43.318;21.898;2022-07-05T06:43:00;9.0;;;9.0;;
21120;SDS011;12519;43.318;21.898;2022-07-05T06:47:54;9.0;;;9.0;;
21120;SDS011;12519;43.318;21.898;2022-07-05T06:52:38;9.0;;;9.0;;
21120;SDS011;12519;43.318;21.898;2022-07-05T06:57:19;9.0;;;8.0;;
21120;SDS011;12519;43.318;21.898;2022-07-05T07:01:58;9.0;;;8.0;;
21120;SDS011;12519;43.318;21.898;2022-07-05T07:06:35;9.0;;;8.0;;
21120;SDS011;12519;43.318;21.898;2022-07-05T07:11:11;9.0;;;8.0;;
21120;SDS011;12519;43.318;21.898;2022-07-05T07:15:48;11.0;;;8.0;;
21120;SDS011;12519;43.318;21.898;2022-07-05T07:20:26;11.0;;;8.0;;
21120;SDS011;12519;43.318;21.898;2022-07-05T07:25:05;13.0;;;9.0;;
21120;SDS011;12519;43.318;21.898;2022-07-05T07:29:44;13.0;;;9.0;;
21120;SDS011;12519;43.318;21.898;2022-07-05T07:34:20;13.0;;;9.0;;
21120;SDS011;12519;43.318;21.898;2022-07-05T07:38:58;13.0;;;9.0;;
21120;SDS011;12519;43.318;21.898;2022-07-05T07:43:35;13.0;;;9.0;;
21120;SDS011;12519;43.318;21.898;2022-07-05T07:48:11;13.0;;;9.0;;
21120;SDS011;12519;43.318;21.898;2022-07-05T07:52:48;13.0;;;9.0;;
21120;SDS011;12519;43.318;21.898;2022-07-05T07:57:24;12.0;;;9.0;;
21120;SDS011;12519;43.318;21.898;2022-07-05T08:02:01;12.0;;;9.0;;
21120;SDS011;12519;43.318;21.898;2022-07-05T08:06:37;12.0;;;9.0;;
21120;SDS011;12519;43.318;21.898;2022-07-05T08:11:15;12.0;;;9.0;;
21120;SDS011;12519;43.318;21.898;2022-07-05T08:15:52;11.0;;;9.0;;
21120;SDS011;12519;43.318;21.898;2022-07-05T08:20:29;11.0;;;9.0;;
21120;SDS011;12519;43.318;21.898;2022-07-05T08:25:06;10.0;;;9.0;;
21120;SDS011;12519;43.318;21.898;2022-07-05T08:29:43;10.0;;;9.0;;
21120;SDS011;12519;43.318;21.898;2022-07-05T08:34:20;10.0;;;10.0;;
21120;SDS011;12519;43.318;21.898;2022-07-05T08:38:57;10.0;;;10.0;;
21120;SDS011;12519;43.318;21.898;2022-07-05T08:43:35;10.0;;;10.0;;
21120;SDS011;12519;43.318;21.898;2022-07-05T08:48:21;10.0;;;10.0;;
21120;SDS011;12519;43.318;21.898;2022-07-05T08:53:03;12.0;;;10.0;;
21120;SDS011;12519;43.318;21.898;2022-07-05T08:57:42;12.0;;;10.0;;
21120;SDS011;12519;43.318;21.898;2022-07-05T09:02:20;12.0;;;10.0;;
21120;SDS011;12519;43.318;21.898;2022-07-05T09:07:04;13.0;;;10.0;;
21120;SDS011;12519;43.318;21.898;2022-07-05T09:11:45;13.0;;;10.0;;
21120;SDS011;12519;43.318;21.898;2022-07-05T09:16:23;12.0;;;10.0;;
21120;SDS011;12519;43.318;21.898;2022-07-05T09:21:13;12.0;;;10.0;;
21120;SDS011;12519;43.318;21.898;2022-07-05T09:26:02;11.0;;;11.0;;
21120;SDS011;12519;43.318;21.898;2022-07-05T09:30:40;11.0;;;11.0;;
21120;SDS011;12519;43.318;21.898;2022-07-05T09:35:20;13.0;;;11.0;;
21120;SDS011;12519;43.318;21.898;2022-07-05T09:39:58;13.0;;;11.0;;
21120;SDS011;12519;43.318;21.898;2022-07-05T09:44:35;15.0;;;11.0;;
21120;SDS011;12519;43.318;21.898;2022-07-05T09:49:25;15.0;;;11.0;;
21120;SDS011;12519;43.318;21.898;2022-07-05T09:54:02;13.0;;;10.0;;
21120;SDS011;12519;43.318;21.898;2022-07-05T09:58:41;13.0;;;10.0;;
21120;SDS011;12519;43.318;21.898;2022-07-05T10:03:18;11.0;;;10.0;;
21120;SDS011;12519;43.318;21.898;2022-07-05T10:07:57;11.0;;;10.0;;
21120;SDS011;12519;43.318;21.898;2022-07-05T10:12:40;11.0;;;10.0;;
21120;SDS011;12519;43.318;21.898;2022-07-05T10:17:26;11.0;;;10.0;;
21120;SDS011;12519;43.318;21.898;2022-07-05T10:22:21;11.0;;;10.0;;
21120;SDS011;12519;43.318;21.898;2022-07-05T10:27:06;11.0;;;10.0;;
21120;SDS011;12519;43.318;21.898;2022-07-05T10:31:44;11.0;;;10.0;;
21120;SDS011;12519;43.318;21.898;2022-07-05T10:36:23;12.0;;;10.0;;
21120;SDS011;12519;43.318;21.898;2022-07-05T10:41:05;12.0;;;10.0;;
21120;SDS011;12519;43.318;21.898;2022-07-05T10:45:52;13.0;;;11.0;;
21120;SDS011;12519;43.318;21.898;2022-07-05T10:50:43;13.0;;;11.0;;
21120;SDS011;12519;43.318;21.898;2022-07-05T10:55:26;16.0;;;12.0;;
21120;SDS011;12519;43.318;21.898;2022-07-05T11:00:06;16.0;;;12.0;;
21120;SDS011;12519;43.318;21.898;2022-07-05T11:04:55;19.0;;;12.0;;
21120;SDS011;12519;43.318;21.898;2022-07-05T11:09:33;19.0;;;12.0;;
21120;SDS011;12519;43.318;21.898;2022-07-05T11:14:30;18.0;;;12.0;;
21120;SDS011;12519;43.318;21.898;2022-07-05T11:19:17;18.0;;;12.0;;
21120;SDS011;12519;43.318;21.898;2022-07-05T11:24:18;17.0;;;12.0;;
21120;SDS011;12519;43.318;21.898;2022-07-05T11:29:03;17.0;;;12.0;;
21120;SDS011;12519;43.318;21.898;2022-07-05T11:33:41;16.0;;;12.0;;
21120;SDS011;12519;43.318;21.898;2022-07-05T11:38:19;16.0;;;12.0;;
21120;SDS011;12519;43.318;21.898;2022-07-05T11:42:57;16.0;;;12.0;;
21120;SDS011;12519;43.318;21.898;2022-07-05T11:47:36;15.0;;;13.0;;
21120;SDS011;12519;43.318;21.898;2022-07-05T11:52:15;15.0;;;13.0;;
21120;SDS011;12519;43.318;21.898;2022-07-05T11:57:01;14.0;;;12.0;;
21120;SDS011;12519;43.318;21.898;2022-07-05T12:01:46;14.0;;;12.0;;
21120;SDS011;12519;43.318;21.898;2022-07-05T12:06:26;14.0;;;12.0;;
21120;SDS011;12519;43.318;21.898;2022-07-05T12:11:03;14.0;;;12.0;;
21120;SDS011;12519;43.318;21.898;2022-07-05T12:15:40;16.0;;;14.0;;
21120;SDS011;12519;43.318;21.898;2022-07-05T12:20:22;16.0;;;14.0;;
21120;SDS011;12519;43.318;21.898;2022-07-05T12:25:05;17.0;;;15.0;;
21120;SDS011;12519;43.318;21.898;2022-07-05T12:29:56;17.0;;;15.0;;
21120;SDS011;12519;43.318;21.898;2022-07-05T12:34:36;16.0;;;14.0;;
21120;SDS011;12519;43.318;21.898;2022-07-05T12:39:16;16.0;;;14.0;;
21120;SDS011;12519;43.318;21.898;2022-07-05T12:43:55;15.0;;;14.0;;
21120;SDS011;12519;43.318;21.898;2022-07-05T12:48:37;15.0;;;14.0;;
21120;SDS011;12519;43.318;21.898;2022-07-05T12:53:17;15.0;;;14.0;;
21120;SDS011;12519;43.318;21.898;2022-07-05T12:57:56;18.0;;;15.0;;
21120;SDS011;12519;43.318;21.898;2022-07-05T13:02:35;18.0;;;15.0;;
21120;SDS011;12519;43.318;21.898;2022-07-05T13:07:25;20.0;;;16.0;;
21120;SDS011;12519;43.318;21.898;2022-07-05T13:12:12;20.0;;;16.0;;
21120;SDS011;12519;43.318;21.898;2022-07-05T13:16:54;22.0;;;18.0;;
21120;SDS011;12519;43.318;21.898;2022-07-05T13:21:30;22.0;;;18.0;;
21120;SDS011;12519;43.318;21.898;2022-07-05T13:26:07;25.0;;;20.0;;
21120;SDS011;12519;43.318;21.898;2022-07-05T13:30:44;25.0;;;20.0;;
21120;SDS011;12519;43.318;21.898;2022-07-05T13:35:20;23.0;;;18.0;;
21120;SDS011;12519;43.318;21.898;2022-07-05T13:39:57;23.0;;;18.0;;
21120;SDS011;12519;43.318;21.898;2022-07-05T13:44:34;21.0;;;17.0;;
21120;SDS011;12519;43.318;21.898;2022-07-05T13:49:10;21.0;;;17.0;;
21120;SDS011;12519;43.318;21.898;2022-07-05T13:53:48;22.0;;;18.0;;
21120;SDS011;12519;43.318;21.898;2022-07-05T13:58:24;22.0;;;18.0;;
21120;SDS011;12519;43.318;21.898;2022-07-05T14:03:00;22.0;;;18.0;;
21120;SDS011;12519;43.318;21.898;2022-07-05T14:07:37;22.0;;;19.0;;
21120;SDS011;12519;43.318;21.898;2022-07-05T14:12:13;22.0;;;19.0;;
21120;SDS011;12519;43.318;21.898;2022-07-05T14:16:50;22.0;;;19.0;;
21120;SDS011;12519;43.318;21.898;2022-07-05T14:21:27;22.0;;;19.0;;
21120;SDS011;12519;43.318;21.898;2022-07-05T14:26:04;22.0;;;19.0;;
21120;SDS011;12519;43.318;21.898;2022-07-05T14:30:43;22.0;;;19.0;;
21120;SDS011;12519;43.318;21.898;2022-07-05T14:35:23;22.0;;;18.0;;
21120;SDS011;12519;43.318;21.898;2022-07-05T14:39:59;22.0;;;18.0;;
21120;SDS011;12519;43.318;21.898;2022-07-05T14:44:36;22.0;;;17.0;;
21120;SDS011;12519;43.318;21.898;2022-07-05T14:49:13;22.0;;;17.0;;
21120;SDS011;12519;43.318;21.898;2022-07-05T14:53:49;23.0;;;18.0;;
21120;SDS011;12519;43.318;21.898;2022-07-05T14:58:25;23.0;;;18.0;;
21120;SDS011;12519;43.318;21.898;2022-07-05T15:03:03;23.0;;;18.0;;
21120;SDS011;12519;43.318;21.898;2022-07-05T15:07:40;24.0;;;19.0;;
21120;SDS011;12519;43.318;21.898;2022-07-05T15:12:17;24.0;;;19.0;;
21120;SDS011;12519;43.318;21.898;2022-07-05T15:16:55;20.0;;;17.0;;
21120;SDS011;12519;43.318;21.898;2022-07-05T15:21:32;20.0;;;17.0;;
21120;SDS011;12519;43.318;21.898;2022-07-05T15:26:09;17.0;;;15.0;;
21120;SDS011;12519;43.318;21.898;2022-07-05T15:30:46;17.0;;;15.0;;
21120;SDS011;12519;43.318;21.898;2022-07-05T15:35:23;22.0;;;19.0;;
21120;SDS011;12519;43.318;21.898;2022-07-05T15:39:59;22.0;;;19.0;;
21120;SDS011;12519;43.318;21.898;2022-07-05T15:44:36;26.0;;;23.0;;
21120;SDS011;12519;43.318;21.898;2022-07-05T15:49:12;26.0;;;23.0;;
21120;SDS011;12519;43.318;21.898;2022-07-05T15:53:49;26.0;;;23.0;;
21120;SDS011;12519;43.318;21.898;2022-07-05T15:58:25;26.0;;;22.0;;
21120;SDS011;12519;43.318;21.898;2022-07-05T16:03:03;26.0;;;22.0;;
21120;SDS011;12519;43.318;21.898;2022-07-05T16:07:39;27.0;;;22.0;;
21120;SDS011;12519;43.318;21.898;2022-07-05T16:12:16;27.0;;;22.0;;
21120;SDS011;12519;43.318;21.898;2022-07-05T16:16:53;26.0;;;20.0;;
21120;SDS011;12519;43.318;21.898;2022-07-05T16:21:30;26.0;;;20.0;;
21120;SDS011;12519;43.318;21.898;2022-07-05T16:26:09;24.0;;;19.0;;
21120;SDS011;12519;43.318;21.898;2022-07-05T16:30:49;24.0;;;19.0;;
21120;SDS011;12519;43.318;21.898;2022-07-05T16:35:26;22.0;;;16.0;;
21120;SDS011;12519;43.318;21.898;2022-07-05T16:40:03;22.0;;;16.0;;
21120;SDS011;12519;43.318;21.898;2022-07-05T16:44:44;19.0;;;12.0;;
21120;SDS011;12519;43.318;21.898;2022-07-05T16:49:20;19.0;;;12.0;;
21120;SDS011;12519;43.318;21.898;2022-07-05T16:53:57;20.0;;;12.0;;
21120;SDS011;12519;43.318;21.898;2022-07-05T16:58:34;20.0;;;12.0;;
21120;SDS011;12519;43.318;21.898;2022-07-05T17:03:11;20.0;;;12.0;;
21120;SDS011;12519;43.318;21.898;2022-07-05T17:07:48;20.0;;;12.0;;
21120;SDS011;12519;43.318;21.898;2022-07-05T17:12:25;20.0;;;12.0;;
21120;SDS011;12519;43.318;21.898;2022-07-05T17:17:02;20.0;;;12.0;;
21120;SDS011;12519;43.318;21.898;2022-07-05T17:21:40;20.0;;;12.0;;
21120;SDS011;12519;43.318;21.898;2022-07-05T17:26:21;20.0;;;13.0;;
21120;SDS011;12519;43.318;21.898;2022-07-05T17:31:02;20.0;;;13.0;;
21120;SDS011;12519;43.318;21.898;2022-07-05T17:35:39;16.0;;;12.0;;
21120;SDS011;12519;43.318;21.898;2022-07-05T17:40:16;16.0;;;12.0;;
21120;SDS011;12519;43.318;21.898;2022-07-05T17:44:53;13.0;;;10.0;;
21120;SDS011;12519;43.318;21.898;2022-07-05T17:49:29;13.0;;;10.0;;
21120;SDS011;12519;43.318;21.898;2022-07-05T17:54:06;12.0;;;8.0;;
21120;SDS011;12519;43.318;21.898;2022-07-05T17:58:43;12.0;;;8.0;;
21120;SDS011;12519;43.318;21.898;2022-07-05T18:03:20;12.0;;;8.0;;
21120;SDS011;12519;43.318;21.898;2022-07-05T18:07:58;10.0;;;7.0;;
21120;SDS011;12519;43.318;21.898;2022-07-05T18:12:35;10.0;;;7.0;;
21120;SDS011;12519;43.318;21.898;2022-07-05T18:17:11;12.0;;;8.0;;
21120;SDS011;12519;43.318;21.898;2022-07-05T18:21:48;12.0;;;8.0;;
21120;SDS011;12519;43.318;21.898;2022-07-05T18:26:24;13.0;;;10.0;;
21120;SDS011;12519;43.318;21.898;2022-07-05T18:31:01;13.0;;;10.0;;
21120;SDS011;12519;43.318;21.898;2022-07-05T18:35:37;10.0;;;8.0;;
21120;SDS011;12519;43.318;21.898;2022-07-05T18:40:14;10.0;;;8.0;;
21120;SDS011;12519;43.318;21.898;2022-07-05T18:44:50;8.0;;;7.0;;
21120;SDS011;12519;43.318;21.898;2022-07-05T18:49:26;8.0;;;7.0;;
21120;SDS011;12519;43.318;21.898;2022-07-05T18:54:04;8.0;;;7.0;;
21120;SDS011;12519;43.318;21.898;2022-07-05T18:58:40;9.0;;;7.0;;
21120;SDS011;12519;43.318;21.898;2022-07-05T19:03:17;9.0;;;7.0;;
21120;SDS011;12519;43.318;21.898;2022-07-05T19:07:53;10.0;;;7.0;;
21120;SDS011;12519;43.318;21.898;2022-07-05T19:12:29;10.0;;;7.0;;
21120;SDS011;12519;43.318;21.898;2022-07-05T19:17:07;10.0;;;8.0;;
21120;SDS011;12519;43.318;21.898;2022-07-05T19:21:43;10.0;;;8.0;;
21120;SDS011;12519;43.318;21.898;2022-07-05T19:26:19;9.0;;;9.0;;
21120;SDS011;12519;43.318;21.898;2022-07-05T19:30:56;9.0;;;9.0;;
21120;SDS011;12519;43.318;21.898;2022-07-05T19:35:33;11.0;;;9.0;;
21120;SDS011;12519;43.318;21.898;2022-07-05T19:40:10;11.0;;;9.0;;
21120;SDS011;12519;43.318;21.898;2022-07-05T19:44:48;13.0;;;9.0;;
21120;SDS011;12519;43.318;21.898;2022-07-05T19:49:25;13.0;;;9.0;;
21120;SDS011;12519;43.318;21.898;2022-07-05T19:54:02;13.0;;;9.0;;
21120;SDS011;12519;43.318;21.898;2022-07-05T19:58:40;12.0;;;8.0;;
21120;SDS011;12519;43.318;21.898;2022-07-05T20:03:17;12.0;;;8.0;;
21120;SDS011;12519;43.318;21.898;2022-07-05T20:07:54;10.0;;;8.0;;
21120;SDS011;12519;43.318;21.898;2022-07-05T20:12:31;10.0;;;8.0;;
21120;SDS011;12519;43.318;21.898;2022-07-05T20:17:07;12.0;;;9.0;;
21120;SDS011;12519;43.318;21.898;2022-07-05T20:21:44;12.0;;;9.0;;
21120;SDS011;12519;43.318;21.898;2022-07-05T20:26:21;14.0;;;10.0;;
21120;SDS011;12519;43.318;21.898;2022-07-05T20:30:57;14.0;;;10.0;;
21120;SDS011;12519;43.318;21.898;2022-07-05T20:35:34;12.0;;;10.0;;
21120;SDS011;12519;43.318;21.898;2022-07-05T20:40:12;12.0;;;10.0;;
21120;SDS011;12519;43.318;21.898;2022-07-05T20:44:50;10.0;;;9.0;;
21120;SDS011;12519;43.318;21.898;2022-07-05T20:49:26;10.0;;;9.0;;
21120;SDS011;12519;43.318;21.898;2022-07-05T20:54:03;10.0;;;9.0;;
21120;SDS011;12519;43.318;21.898;2022-07-05T20:58:40;12.0;;;10.0;;
21120;SDS011;12519;43.318;21.898;2022-07-05T21:03:16;12.0;;;10.0;;
21120;SDS011;12519;43.318;21.898;2022-07-05T21:07:53;14.0;;;10.0;;
21120;SDS011;12519;43.318;21.898;2022-07-05T21:12:30;14.0;;;10.0;;
21120;SDS011;12519;43.318;21.898;2022-07-05T21:17:06;12.0;;;9.0;;
21120;SDS011;12519;43.318;21.898;2022-07-05T21:21:44;12.0;;;9.0;;
21120;SDS011;12519;43.318;21.898;2022-07-05T21:26:20;9.0;;;8.0;;
21120;SDS011;12519;43.318;21.898;2022-07-05T21:30:57;9.0;;;8.0;;
21120;SDS011;12519;43.318;21.898;2022-07-05T21:35:33;10.0;;;8.0;;
21120;SDS011;12519;43.318;21.898;2022-07-05T21:40:10;10.0;;;8.0;;
21120;SDS011;12519;43.318;21.898;2022-07-05T21:44:48;10.0;;;7.0;;
21120;SDS011;12519;43.318;21.898;2022-07-05T21:49:24;10.0;;;7.0;;
21120;SDS011;12519;43.318;21.898;2022-07-05T21:54:01;10.0;;;7.0;;
21120;SDS011;12519;43.318;21.898;2022-07-05T21:58:38;10.0;;;8.0;;
21120;SDS011;12519;43.318;21.898;2022-07-05T22:03:16;10.0;;;8.0;;
21120;SDS011;12519;43.318;21.898;2022-07-05T22:07:52;10.0;;;8.0;;
21120;SDS011;12519;43.318;21.898;2022-07-05T22:12:29;10.0;;;8.0;;
21120;SDS011;12519;43.318;21.898;2022-07-05T22:17:06;10.0;;;8.0;;
21120;SDS011;12519;43.318;21.898;2022-07-05T22:21:43;10.0;;;8.0;;
21120;SDS011;12519;43.318;21.898;2022-07-05T22:35:34;8.0;;;8.0;;
21120;SDS011;12519;43.318;21.898;2022-07-05T22:40:11;8.0;;;8.0;;
21120;SDS011;12519;43.318;21.898;2022-07-05T22:44:47;8.0;;;8.0;;
21120;SDS011;12519;43.318;21.898;2022-07-05T22:49:23;8.0;;;8.0;;
21120;SDS011;12519;43.318;21.898;2022-07-05T22:53:59;8.0;;;8.0;;
21120;SDS011;12519;43.318;21.898;2022-07-05T22:58:36;8.0;;;8.0;;
21120;SDS011;12519;43.318;21.898;2022-07-05T23:03:12;8.0;;;8.0;;
21120;SDS011;12519;43.318;21.898;2022-07-05T23:07:49;9.0;;;8.0;;
21120;SDS011;12519;43.318;21.898;2022-07-05T23:12:25;9.0;;;8.0;;
21120;SDS011;12519;43.318;21.898;2022-07-05T23:17:03;10.0;;;8.0;;
21120;SDS011;12519;43.318;21.898;2022-07-05T23:21:39;10.0;;;8.0;;
21120;SDS011;12519;43.318;21.898;2022-07-05T23:26:16;11.0;;;9.0;;
21120;SDS011;12519;43.318;21.898;2022-07-05T23:30:52;11.0;;;9.0;;
21120;SDS011;12519;43.318;21.898;2022-07-05T23:35:29;10.0;;;8.0;;
21120;SDS011;12519;43.318;21.898;2022-07-05T23:40:08;10.0;;;8.0;;
21120;SDS011;12519;43.318;21.898;2022-07-05T23:44:46;8.0;;;7.0;;
21120;SDS011;12519;43.318;21.898;2022-07-05T23:49:23;8.0;;;7.0;;
21120;SDS011;12519;43.318;21.898;2022-07-05T23:54:00;8.0;;;7.0;;
21120;SDS011;12519;43.318;21.898;2022-07-05T23:58:36;8.0;;;8.0;;
